Time;durP1;ratioP1;P1;durP2;ratioP2;P2;SDS_P1;SDS_P2;PMS_P1;PMS_P2;Temp;Humidity;BMP_temperature;BMP_pressure;BME280_temperature;BME280_humidity;BME280_pressure;Samples;Min_cycle;Max_cycle;Signal;HPM_P1;HPM_P2
2022/12/01 00:02:01;;;;;;;73.20;34.57;;;5.70;99.90;;;;;;5076872;28;20170;-73
2022/12/01 00:04:26;;;;;;;63.20;33.97;;;5.60;99.90;;;;;;5076037;28;20516;-72
2022/12/01 00:06:52;;;;;;;63.90;33.63;;;5.60;99.90;;;;;;5076640;28;20186;-71
2022/12/01 00:12:02;;;;;;;62.43;31.90;;;5.50;99.90;;;;;;5076823;28;20554;-72
2022/12/01 00:14:28;;;;;;;66.30;34.23;;;5.40;99.90;;;;;;5075781;28;20400;-72
2022/12/01 00:16:53;;;;;;;66.67;33.00;;;5.40;99.90;;;;;;5076532;28;20201;-71
2022/12/01 00:19:23;;;;;;;70.43;33.90;;;5.40;99.90;;;;;;5076732;28;20253;-71
2022/12/01 00:21:48;;;;;;;69.10;34.40;;;5.30;99.90;;;;;;5076642;28;20526;-72
2022/12/01 00:24:14;;;;;;;70.83;33.40;;;5.20;99.90;;;;;;5075716;28;20408;-71
2022/12/01 00:26:40;;;;;;;59.37;35.50;;;5.10;99.90;;;;;;5076462;28;20272;-72
2022/12/01 00:29:05;;;;;;;71.40;33.93;;;5.00;99.90;;;;;;5076357;28;20200;-73
2022/12/01 00:31:31;;;;;;;66.50;34.10;;;5.00;99.90;;;;;;5076293;28;20640;-72
2022/12/01 00:33:57;;;;;;;66.23;33.47;;;5.00;99.90;;;;;;5075125;28;20539;-73
2022/12/01 00:36:23;;;;;;;74.77;34.13;;;5.10;99.90;;;;;;5075975;28;20220;-72
2022/12/01 00:38:53;;;;;;;72.00;33.30;;;5.10;99.90;;;;;;5076311;28;20170;-72
2022/12/01 00:41:19;;;;;;;66.20;32.00;;;5.10;99.90;;;;;;5076170;28;20893;-72
2022/12/01 00:43:45;;;;;;;66.70;33.63;;;5.10;99.90;;;;;;5075275;28;20408;-72
2022/12/01 00:46:11;;;;;;;59.00;31.50;;;5.10;99.90;;;;;;5075841;28;20454;-73
2022/12/01 00:48:37;;;;;;;68.07;32.17;;;5.20;99.90;;;;;;5075915;28;20193;-72
2022/12/01 00:51:03;;;;;;;62.67;31.20;;;5.30;99.90;;;;;;5075694;28;20182;-72
2022/12/01 00:53:29;;;;;;;62.60;32.97;;;5.30;99.90;;;;;;5075748;28;20208;-73
2022/12/01 00:55:55;;;;;;;66.03;33.13;;;5.30;99.90;;;;;;5075327;28;20420;-72
2022/12/01 00:58:24;;;;;;;65.57;32.53;;;5.20;99.90;;;;;;5075616;28;20440;-73
2022/12/01 01:01:00;;;;;;;68.43;33.17;;;5.20;99.90;;;;;;5075807;28;20419;-72
2022/12/01 01:03:27;;;;;;;58.80;32.20;;;5.30;99.90;;;;;;5075721;28;20788;-73
2022/12/01 01:05:53;;;;;;;67.50;33.13;;;5.30;99.90;;;;;;5075269;28;20478;-72
2022/12/01 01:08:20;;;;;;;67.63;33.20;;;5.30;99.90;;;;;;5075697;28;20408;-72
2022/12/01 01:10:47;;;;;;;60.03;30.83;;;5.30;99.90;;;;;;5073983;28;20478;-71
2022/12/01 01:13:14;;;;;;;54.53;30.57;;;5.40;99.90;;;;;;5075761;28;20559;-71
2022/12/01 01:15:40;;;;;;;59.47;32.57;;;5.40;99.90;;;;;;5074846;28;20389;-72
2022/12/01 01:18:06;;;;;;;63.37;33.83;;;5.40;99.90;;;;;;5075389;28;20403;-72
2022/12/01 01:20:32;;;;;;;56.83;31.13;;;5.40;99.90;;;;;;5075424;28;20439;-72
2022/12/01 01:22:58;;;;;;;52.27;28.23;;;5.40;99.90;;;;;;5075446;28;20406;-71
2022/12/01 01:25:24;;;;;;;54.53;29.40;;;5.40;99.90;;;;;;5074312;28;20408;-72
2022/12/01 01:27:50;;;;;;;57.90;32.67;;;5.30;99.90;;;;;;5074906;28;20479;-72
2022/12/01 01:30:17;;;;;;;64.03;33.20;;;5.40;99.90;;;;;;5075265;28;20400;-72
2022/12/01 01:32:42;;;;;;;57.37;32.10;;;5.50;99.90;;;;;;5074983;28;20459;-73
2022/12/01 01:35:08;;;;;;;53.10;30.03;;;5.50;99.90;;;;;;5074537;28;20401;-70
2022/12/01 01:37:34;;;;;;;59.93;33.50;;;5.60;99.90;;;;;;5075057;28;20250;-71
2022/12/01 01:40:00;;;;;;;64.80;31.77;;;5.60;99.90;;;;;;5074864;28;20401;-72
2022/12/01 01:42:25;;;;;;;64.07;30.40;;;5.60;99.90;;;;;;5073431;28;20202;-72
2022/12/01 01:44:55;;;;;;;64.47;32.00;;;5.60;99.90;;;;;;5074160;28;20186;-72
2022/12/01 01:47:29;;;;;;;57.53;29.60;;;5.60;99.90;;;;;;5075118;28;20182;-72
2022/12/01 01:49:58;;;;;;;61.97;30.40;;;5.60;99.90;;;;;;5074677;28;20427;-72
2022/12/01 01:52:24;;;;;;;59.50;30.20;;;5.60;99.90;;;;;;5074690;28;20444;-73
2022/12/01 01:54:53;;;;;;;62.20;29.60;;;5.50;99.90;;;;;;5073446;28;20389;-72
2022/12/01 01:57:27;;;;;;;61.60;30.63;;;5.50;99.90;;;;;;5074792;28;20459;-72
2022/12/01 02:00:10;;;;;;;58.70;28.80;;;5.50;99.90;;;;;;5074203;28;20404;-72
2022/12/01 02:02:39;;;;;;;51.70;29.60;;;5.50;99.90;;;;;;5073281;28;20420;-73
2022/12/01 02:05:10;;;;;;;58.57;29.37;;;5.50;99.90;;;;;;5073767;28;20828;-72
2022/12/01 02:07:41;;;;;;;50.43;29.37;;;5.50;99.90;;;;;;5074465;28;20425;-72
2022/12/01 02:10:09;;;;;;;60.57;30.03;;;5.40;99.90;;;;;;5074506;28;20981;-72
2022/12/01 02:12:53;;;;;;;62.57;31.00;;;5.50;99.90;;;;;;5074413;28;20535;-72
2022/12/01 02:15:34;;;;;;;65.97;28.07;;;5.50;99.90;;;;;;5073358;28;20418;-72
2022/12/01 02:17:59;;;;;;;53.83;30.90;;;5.50;99.90;;;;;;5074189;28;20409;-72
2022/12/01 02:20:44;;;;;;;63.53;30.87;;;5.50;99.90;;;;;;5073250;28;20993;-72
2022/12/01 02:23:47;;;;;;;61.20;31.97;;;5.50;99.90;;;;;;5074159;28;20166;-71
2022/12/01 02:26:31;;;;;;;53.20;28.27;;;5.40;99.90;;;;;;5074000;28;20423;-72
2022/12/01 02:29:03;;;;;;;58.17;29.87;;;5.40;99.90;;;;;;5074007;28;20401;-72
2022/12/01 02:31:41;;;;;;;60.40;30.73;;;5.30;99.90;;;;;;5073956;28;20411;-72
2022/12/01 02:34:16;;;;;;;58.60;28.47;;;5.30;99.90;;;;;;5073271;28;20947;-72
2022/12/01 02:36:42;;;;;;;55.33;28.87;;;5.30;99.90;;;;;;5073414;28;20900;-72
2022/12/01 02:39:25;;;;;;;63.33;30.60;;;5.40;99.90;;;;;;5073786;28;20383;-72
2022/12/01 02:42:50;;;;;;;58.77;29.40;;;5.30;99.90;;;;;;5073879;28;20173;-71
2022/12/01 02:45:27;;;;;;;56.33;28.17;;;5.40;99.90;;;;;;5048543;28;20407;-72
2022/12/01 02:47:57;;;;;;;58.17;28.73;;;5.40;99.90;;;;;;5073809;28;20432;-71
2022/12/01 02:50:25;;;;;;;63.67;30.50;;;5.40;99.90;;;;;;5072616;28;20420;-72
2022/12/01 02:52:53;;;;;;;67.27;29.47;;;5.40;99.90;;;;;;5073313;28;20470;-71
2022/12/01 02:55:19;;;;;;;51.80;28.50;;;5.40;99.90;;;;;;5072653;28;20521;-73
2022/12/01 02:57:44;;;;;;;59.97;28.07;;;5.30;99.90;;;;;;5073553;28;20457;-72
2022/12/01 03:00:12;;;;;;;56.03;29.83;;;5.40;99.90;;;;;;5073668;28;20393;-72
2022/12/01 03:02:53;;;;;;;47.20;29.30;;;5.40;99.90;;;;;;5073651;28;20174;-72
2022/12/01 03:05:37;;;;;;;58.47;31.03;;;5.40;99.90;;;;;;5072621;28;20487;-72
2022/12/01 03:08:12;;;;;;;56.10;26.30;;;5.40;99.90;;;;;;5073235;28;20403;-72
2022/12/01 03:10:54;;;;;;;65.03;28.43;;;5.40;99.90;;;;;;5073031;28;20401;-72
2022/12/01 03:13:51;;;;;;;52.67;27.93;;;5.50;99.90;;;;;;5073338;28;21017;-72
2022/12/01 03:16:34;;;;;;;54.57;26.30;;;5.60;99.90;;;;;;5073664;28;20408;-72
2022/12/01 03:19:15;;;;;;;56.20;26.57;;;5.40;99.90;;;;;;5073345;28;20404;-72
2022/12/01 03:21:47;;;;;;;54.93;28.80;;;5.50;99.90;;;;;;5073394;28;20404;-73
2022/12/01 03:24:19;;;;;;;47.97;26.30;;;5.60;99.90;;;;;;5072759;28;20389;-72
2022/12/01 03:26:55;;;;;;;51.67;25.00;;;5.60;99.90;;;;;;5071919;28;20763;-72
2022/12/01 03:29:32;;;;;;;59.03;27.90;;;5.60;99.90;;;;;;5072794;28;20396;-73
2022/12/01 03:32:04;;;;;;;58.00;26.53;;;5.70;99.90;;;;;;5073306;28;20448;-71
2022/12/01 03:34:55;;;;;;;51.90;26.70;;;5.70;99.90;;;;;;5072674;28;20401;-72
2022/12/01 03:37:30;;;;;;;45.43;25.53;;;5.70;99.90;;;;;;5071304;28;20478;-73
2022/12/01 03:39:57;;;;;;;55.70;27.60;;;5.70;99.90;;;;;;5073194;28;20924;-72
2022/12/01 03:42:32;;;;;;;61.50;26.80;;;5.70;99.90;;;;;;5073202;28;20405;-72
2022/12/01 03:45:04;;;;;;;49.67;25.10;;;5.60;99.90;;;;;;5072045;28;20826;-71
2022/12/01 03:47:36;;;;;;;45.03;24.77;;;5.70;99.90;;;;;;5073537;28;20820;-72
2022/12/01 03:50:03;;;;;;;40.07;24.97;;;5.70;99.90;;;;;;5072961;28;20449;-72
2022/12/01 03:52:29;;;;;;;51.87;25.07;;;5.70;99.90;;;;;;5073014;28;20505;-72
2022/12/01 03:55:36;;;;;;;54.07;27.07;;;5.60;99.90;;;;;;5072436;28;20389;-72
2022/12/01 03:58:22;;;;;;;42.47;24.27;;;5.60;99.90;;;;;;5056373;28;20181;-72
2022/12/01 04:00:52;;;;;;;48.40;28.70;;;5.60;99.90;;;;;;5073106;28;20409;-72
2022/12/01 04:03:24;;;;;;;55.07;27.77;;;5.70;99.90;;;;;;5072663;28;20487;-72
2022/12/01 04:05:50;;;;;;;57.40;28.60;;;5.70;99.90;;;;;;5072142;28;20804;-73
2022/12/01 04:08:16;;;;;;;48.30;28.20;;;5.70;99.90;;;;;;5072912;28;20408;-72
2022/12/01 04:10:42;;;;;;;57.83;31.00;;;5.70;99.90;;;;;;5073219;28;20407;-72
2022/12/01 04:13:15;;;;;;;62.30;29.80;;;5.60;99.90;;;;;;5072913;28;20452;-72
2022/12/01 04:15:41;;;;;;;58.73;27.23;;;5.60;99.90;;;;;;5072244;28;20750;-72
2022/12/01 04:18:07;;;;;;;51.50;26.60;;;5.60;99.90;;;;;;5074488;28;20431;-71
2022/12/01 04:20:32;;;;;;;54.27;28.77;;;5.60;99.90;;;;;;5076604;28;20762;-72
2022/12/01 04:22:58;;;;;;;49.00;27.07;;;5.70;99.90;;;;;;5075013;28;20202;-72
2022/12/01 04:25:24;;;;;;;63.73;28.70;;;5.70;99.90;;;;;;5074855;28;20261;-71
2022/12/01 04:27:49;;;;;;;63.77;30.57;;;5.70;99.90;;;;;;5076389;28;20190;-72
2022/12/01 04:30:15;;;;;;;67.43;30.57;;;5.70;99.90;;;;;;5076231;28;20162;-72
2022/12/01 04:32:42;;;;;;;61.33;28.93;;;5.70;99.90;;;;;;5076358;28;20740;-71
2022/12/01 04:35:11;;;;;;;69.00;31.90;;;5.70;99.90;;;;;;5075618;28;20451;-72
2022/12/01 04:37:38;;;;;;;53.20;30.47;;;5.70;99.90;;;;;;5076170;28;20444;-71
2022/12/01 04:40:05;;;;;;;64.13;31.50;;;5.70;99.90;;;;;;5075899;28;20483;-73
2022/12/01 04:42:30;;;;;;;69.83;30.60;;;5.70;99.90;;;;;;5075962;28;20420;-72
2022/12/01 04:44:56;;;;;;;57.23;32.10;;;5.70;99.90;;;;;;5075502;28;20401;-72
2022/12/01 04:47:22;;;;;;;64.40;32.07;;;5.70;99.90;;;;;;5075924;28;20555;-72
2022/12/01 04:49:48;;;;;;;58.63;30.37;;;5.60;99.90;;;;;;5075883;28;20503;-71
2022/12/01 04:52:13;;;;;;;66.53;32.50;;;5.60;99.90;;;;;;5075769;28;20194;-72
2022/12/01 04:54:39;;;;;;;66.97;32.30;;;5.60;99.90;;;;;;5075182;28;20162;-71
2022/12/01 04:57:05;;;;;;;64.63;30.47;;;5.60;99.90;;;;;;5075767;28;20186;-71
2022/12/01 04:59:31;;;;;;;63.30;33.70;;;5.60;99.90;;;;;;5075431;28;20562;-72
2022/12/01 05:01:56;;;;;;;60.80;30.07;;;5.60;99.90;;;;;;5075748;28;20173;-72
2022/12/01 05:04:22;;;;;;;66.10;30.50;;;5.60;99.90;;;;;;5074930;28;20178;-73
2022/12/01 05:06:48;;;;;;;61.20;30.87;;;5.60;99.90;;;;;;5075807;28;20578;-72
2022/12/01 05:09:15;;;;;;;56.73;31.47;;;5.50;99.90;;;;;;5075590;28;20650;-72
2022/12/01 05:11:42;;;;;;;65.07;33.00;;;5.50;99.90;;;;;;5075642;28;20176;-72
2022/12/01 05:14:08;;;;;;;75.07;30.90;;;5.50;99.90;;;;;;5075001;28;20397;-73
2022/12/01 05:16:34;;;;;;;72.57;34.90;;;5.60;99.90;;;;;;5074846;28;20901;-73
2022/12/01 05:21:47;;;;;;;70.13;34.43;;;5.60;99.90;;;;;;5075562;28;20392;-71
2022/12/01 05:24:14;;;;;;;71.47;36.20;;;5.50;99.90;;;;;;5074752;28;20896;-72
2022/12/01 05:26:41;;;;;;;59.07;28.90;;;5.30;99.90;;;;;;5075240;28;20482;-72
2022/12/01 05:29:09;;;;;;;69.53;31.10;;;5.30;99.90;;;;;;5074689;28;20484;-73
2022/12/01 05:31:35;;;;;;;67.30;31.97;;;5.40;99.90;;;;;;5075367;28;20480;-72
2022/12/01 05:34:03;;;;;;;67.63;34.00;;;5.50;99.90;;;;;;5074207;28;20573;-73
2022/12/01 05:36:29;;;;;;;59.30;30.23;;;5.50;99.90;;;;;;5074982;28;20452;-72
2022/12/01 05:38:54;;;;;;;70.80;33.00;;;5.50;99.90;;;;;;5075102;28;20424;-72
2022/12/01 05:41:20;;;;;;;68.50;31.47;;;5.50;99.90;;;;;;5075143;28;20178;-72
2022/12/01 05:43:46;;;;;;;68.13;31.53;;;5.40;99.90;;;;;;5074408;28;20170;-72
2022/12/01 05:46:12;;;;;;;62.40;29.00;;;5.30;99.90;;;;;;5074867;28;20250;-72
2022/12/01 05:48:37;;;;;;;64.60;32.30;;;5.20;99.90;;;;;;5074719;28;20182;-72
2022/12/01 05:51:11;;;;;;;52.73;29.93;;;5.30;99.90;;;;;;5074815;28;20178;-72
2022/12/01 05:53:36;;;;;;;54.37;29.57;;;5.30;99.90;;;;;;5073719;28;20791;-73
2022/12/01 05:56:02;;;;;;;56.77;29.57;;;5.30;99.90;;;;;;5074688;28;20430;-72
2022/12/01 05:58:28;;;;;;;54.53;29.80;;;5.30;99.90;;;;;;5074618;28;20185;-73
2022/12/01 06:00:54;;;;;;;63.03;31.27;;;5.30;99.90;;;;;;5074490;28;20400;-72
2022/12/01 06:03:20;;;;;;;66.07;30.10;;;5.30;99.90;;;;;;5074537;28;20202;-72
2022/12/01 06:05:45;;;;;;;65.50;30.53;;;5.20;99.90;;;;;;5073855;28;20257;-72
2022/12/01 06:08:11;;;;;;;66.53;31.73;;;5.20;99.90;;;;;;5074544;28;20189;-72
2022/12/01 06:10:37;;;;;;;63.00;30.67;;;5.20;99.90;;;;;;5073995;28;20257;-73
2022/12/01 06:13:02;;;;;;;57.93;30.27;;;5.30;99.90;;;;;;5072937;28;20194;-72
2022/12/01 06:15:28;;;;;;;56.77;33.27;;;5.20;99.90;;;;;;5073766;28;20295;-72
2022/12/01 06:17:57;;;;;;;66.60;30.33;;;5.30;99.90;;;;;;5074220;28;20196;-72
2022/12/01 06:20:23;;;;;;;58.60;29.93;;;5.30;99.90;;;;;;5074361;28;20401;-72
2022/12/01 06:22:49;;;;;;;61.30;31.13;;;5.40;99.90;;;;;;5074316;28;20396;-73
2022/12/01 06:25:14;;;;;;;61.57;30.87;;;5.40;99.90;;;;;;5073470;28;20630;-71
2022/12/01 06:27:40;;;;;;;69.83;32.03;;;5.30;99.90;;;;;;5073516;28;20205;-71
2022/12/01 06:30:06;;;;;;;60.87;31.47;;;5.20;99.90;;;;;;5072753;28;20576;-71
2022/12/01 06:32:32;;;;;;;69.30;30.17;;;5.00;99.90;;;;;;5074106;28;20194;-71
2022/12/01 06:34:58;;;;;;;65.30;32.23;;;5.00;99.90;;;;;;5073303;28;20403;-71
2022/12/01 06:37:25;;;;;;;59.47;29.27;;;4.90;99.90;;;;;;5073787;28;20430;-71
2022/12/01 06:39:51;;;;;;;65.57;31.03;;;5.00;99.90;;;;;;5073934;28;20171;-71
2022/12/01 06:42:17;;;;;;;60.60;28.97;;;5.10;99.90;;;;;;5073730;28;20409;-71
2022/12/01 06:44:43;;;;;;;59.50;31.20;;;5.20;99.90;;;;;;5073236;28;20410;-71
2022/12/01 06:47:09;;;;;;;63.30;29.83;;;5.30;99.90;;;;;;5073278;28;20212;-72
2022/12/01 06:49:34;;;;;;;61.50;29.40;;;5.20;99.90;;;;;;5073658;28;20909;-71
2022/12/01 06:52:00;;;;;;;76.67;31.63;;;5.30;99.90;;;;;;5073675;28;20171;-73
2022/12/01 06:54:26;;;;;;;56.70;30.40;;;5.30;99.90;;;;;;5073049;28;20170;-71
2022/12/01 06:56:52;;;;;;;53.60;27.93;;;5.20;99.90;;;;;;5073421;28;20786;-72
2022/12/01 06:59:18;;;;;;;57.43;30.07;;;5.20;99.90;;;;;;5073487;28;20170;-73
2022/12/01 07:01:44;;;;;;;65.40;31.70;;;5.20;99.90;;;;;;5073891;28;20627;-71
2022/12/01 07:04:10;;;;;;;53.13;29.30;;;5.30;99.90;;;;;;5072837;28;20959;-70
2022/12/01 07:06:36;;;;;;;63.27;29.60;;;5.40;99.90;;;;;;5073053;28;20416;-70
2022/12/01 07:09:02;;;;;;;56.20;27.67;;;5.50;99.90;;;;;;5073494;28;20174;-72
2022/12/01 07:11:29;;;;;;;65.43;30.23;;;5.60;99.90;;;;;;5073307;28;20228;-70
2022/12/01 07:13:55;;;;;;;56.13;30.07;;;5.60;99.90;;;;;;5072864;28;20240;-71
2022/12/01 07:16:21;;;;;;;66.90;29.87;;;5.60;99.90;;;;;;5073794;28;20424;-72
2022/12/01 07:18:47;;;;;;;66.70;30.17;;;5.70;99.90;;;;;;5073628;28;20189;-72
2022/12/01 07:21:14;;;;;;;62.00;30.43;;;5.70;99.90;;;;;;5073047;28;20432;-72
2022/12/01 07:23:40;;;;;;;61.33;29.83;;;5.70;99.90;;;;;;5072577;28;20169;-72
2022/12/01 07:26:14;;;;;;;69.50;29.40;;;5.70;99.90;;;;;;5073739;28;20940;-72
2022/12/01 07:28:40;;;;;;;64.83;32.43;;;5.70;99.90;;;;;;5073470;28;20470;-72
2022/12/01 07:31:14;;;;;;;68.73;33.70;;;5.70;99.90;;;;;;5072105;28;20739;-72
2022/12/01 07:33:40;;;;;;;65.23;30.63;;;5.60;99.90;;;;;;5072597;28;20947;-73
2022/12/01 07:36:07;;;;;;;68.53;31.30;;;5.60;99.90;;;;;;5073363;28;20446;-72
2022/12/01 07:38:34;;;;;;;66.30;31.70;;;5.60;99.90;;;;;;5072441;28;20499;-72
2022/12/01 07:41:05;;;;;;;60.40;32.27;;;5.60;99.90;;;;;;5073205;28;20923;-73
2022/12/01 07:43:31;;;;;;;72.83;35.20;;;5.50;99.90;;;;;;5072821;28;20446;-72
2022/12/01 07:46:04;;;;;;;63.57;33.40;;;5.50;99.90;;;;;;5072644;28;20880;-73
2022/12/01 07:48:30;;;;;;;76.00;33.10;;;5.50;99.90;;;;;;5073078;28;20454;-73
2022/12/01 07:50:55;;;;;;;76.17;35.03;;;5.60;99.90;;;;;;5072990;28;20833;-72
2022/12/01 07:53:22;;;;;;;61.33;30.73;;;5.70;99.90;;;;;;5075090;28;20322;-74
2022/12/01 07:55:51;;;;;;;59.23;30.20;;;5.70;99.90;;;;;;5076016;28;20209;-74
2022/12/01 07:58:17;;;;;;;69.33;33.90;;;5.70;99.90;;;;;;5076902;28;20473;-73
2022/12/01 08:00:43;;;;;;;75.03;34.00;;;5.70;99.90;;;;;;5076968;28;20936;-73
2022/12/01 08:03:09;;;;;;;70.63;32.37;;;5.70;99.90;;;;;;5075475;28;20542;-73
2022/12/01 08:05:34;;;;;;;66.77;32.33;;;5.50;99.90;;;;;;5075998;28;20232;-73
2022/12/01 08:08:00;;;;;;;61.67;31.00;;;5.50;99.90;;;;;;5076740;28;20619;-73
2022/12/01 08:10:26;;;;;;;63.20;32.47;;;5.50;99.90;;;;;;5076845;28;20706;-72
2022/12/01 08:12:52;;;;;;;72.97;30.67;;;5.60;99.90;;;;;;5075472;28;20458;-72
2022/12/01 08:15:17;;;;;;;72.53;32.80;;;5.50;99.90;;;;;;5074439;28;20197;-74
2022/12/01 08:17:43;;;;;;;91.43;34.80;;;5.50;99.90;;;;;;5076562;28;20186;-73
2022/12/01 08:20:10;;;;;;;64.97;34.37;;;5.40;99.90;;;;;;5076645;28;20173;-72
2022/12/01 08:22:35;;;;;;;68.00;31.47;;;5.40;99.90;;;;;;5076514;28;20170;-72
2022/12/01 08:25:01;;;;;;;77.50;30.90;;;5.40;99.90;;;;;;5075848;28;20791;-72
2022/12/01 08:27:27;;;;;;;65.93;29.87;;;5.40;99.90;;;;;;5076513;28;20197;-72
2022/12/01 08:29:53;;;;;;;71.97;32.17;;;5.40;99.90;;;;;;5076396;28;20174;-73
2022/12/01 08:32:19;;;;;;;65.40;32.03;;;5.40;99.90;;;;;;5076317;28;20952;-72
2022/12/01 08:34:45;;;;;;;60.10;32.47;;;5.20;99.90;;;;;;5075278;28;20173;-74
2022/12/01 08:37:10;;;;;;;70.10;32.07;;;5.20;99.90;;;;;;5076144;28;20743;-73
2022/12/01 08:39:36;;;;;;;67.00;29.10;;;5.10;99.90;;;;;;5076288;28;20406;-73
2022/12/01 08:42:02;;;;;;;69.50;32.93;;;5.10;99.90;;;;;;5075935;28;20547;-72
2022/12/01 08:44:27;;;;;;;64.80;31.53;;;5.10;99.90;;;;;;5075406;28;20166;-73
2022/12/01 08:46:53;;;;;;;65.10;33.17;;;5.10;99.90;;;;;;5076104;28;20211;-72
2022/12/01 08:49:19;;;;;;;82.53;32.03;;;5.10;99.90;;;;;;5075898;28;20211;-72
2022/12/01 08:51:45;;;;;;;75.00;33.53;;;5.20;99.90;;;;;;5075563;28;20565;-73
2022/12/01 08:54:11;;;;;;;66.20;32.20;;;5.20;99.90;;;;;;5075066;28;20497;-74
2022/12/01 08:56:41;;;;;;;71.23;32.20;;;5.20;99.90;;;;;;5076010;28;20181;-72
2022/12/01 08:59:08;;;;;;;69.00;32.47;;;5.20;99.90;;;;;;5075886;28;20397;-72
2022/12/01 09:01:34;;;;;;;61.07;32.57;;;5.10;99.90;;;;;;5075802;28;20390;-72
2022/12/01 09:04:04;;;;;;;75.60;35.17;;;5.10;99.90;;;;;;5073881;28;20399;-73
2022/12/01 09:06:31;;;;;;;70.90;32.00;;;5.10;99.90;;;;;;5075563;28;20455;-72
2022/12/01 09:09:00;;;;;;;72.30;29.80;;;5.20;99.90;;;;;;5075458;28;20455;-74
2022/12/01 09:11:26;;;;;;;66.87;31.97;;;5.20;99.90;;;;;;5075539;28;20405;-72
2022/12/01 09:13:52;;;;;;;68.33;33.00;;;5.10;99.90;;;;;;5073946;28;20511;-73
2022/12/01 09:16:18;;;;;;;72.50;34.43;;;5.10;99.90;;;;;;5075280;28;20769;-73
2022/12/01 09:18:45;;;;;;;69.47;32.80;;;5.20;99.90;;;;;;5075447;28;20169;-72
2022/12/01 09:21:21;;;;;;;77.23;33.00;;;5.40;99.90;;;;;;5075432;28;20495;-73
2022/12/01 09:23:48;;;;;;;65.40;30.80;;;5.40;99.90;;;;;;5074873;28;20546;-73
2022/12/01 09:26:17;;;;;;;69.90;33.57;;;5.30;99.90;;;;;;5074817;28;20422;-73
2022/12/01 09:28:44;;;;;;;70.43;31.20;;;5.20;99.90;;;;;;5075373;28;20404;-73
2022/12/01 09:31:11;;;;;;;82.90;31.17;;;5.30;99.90;;;;;;5075398;28;20493;-73
2022/12/01 09:33:38;;;;;;;58.83;29.70;;;5.30;99.90;;;;;;5074630;28;20495;-74
2022/12/01 09:36:05;;;;;;;63.77;29.63;;;5.30;99.90;;;;;;5075129;28;20423;-72
2022/12/01 09:38:32;;;;;;;69.63;31.17;;;5.50;99.90;;;;;;5075038;28;20424;-74
2022/12/01 09:41:10;;;;;;;58.03;29.47;;;5.60;99.90;;;;;;5075249;28;20791;-72
2022/12/01 09:43:51;;;;;;;66.83;29.27;;;5.70;99.90;;;;;;5074322;28;20404;-74
2022/12/01 09:46:24;;;;;;;58.23;29.50;;;5.80;99.90;;;;;;5075036;28;20497;-73
2022/12/01 09:48:52;;;;;;;67.60;31.03;;;5.80;99.90;;;;;;5074824;28;20495;-74
2022/12/01 09:51:21;;;;;;;52.87;27.70;;;5.80;99.90;;;;;;5074679;28;20756;-74
2022/12/01 09:53:53;;;;;;;56.90;27.50;;;5.80;99.90;;;;;;5074135;28;20440;-73
2022/12/01 09:56:23;;;;;;;64.70;28.80;;;5.90;99.90;;;;;;5074776;28;20458;-73
2022/12/01 09:58:57;;;;;;;64.50;31.03;;;5.80;99.90;;;;;;5074662;28;20480;-73
2022/12/01 10:01:36;;;;;;;63.77;29.20;;;5.80;99.90;;;;;;5074659;28;20904;-74
2022/12/01 10:04:12;;;;;;;74.53;33.67;;;5.80;99.90;;;;;;5072202;28;20470;-73
2022/12/01 10:06:51;;;;;;;63.30;28.67;;;5.60;99.90;;;;;;5074360;28;20427;-74
2022/12/01 10:09:45;;;;;;;65.67;30.87;;;5.70;99.90;;;;;;5074825;28;20398;-73
2022/12/01 10:12:14;;;;;;;73.13;35.37;;;5.80;99.90;;;;;;5074476;28;20474;-73
2022/12/01 10:14:42;;;;;;;74.00;31.07;;;5.90;99.90;;;;;;5073647;28;20412;-73
2022/12/01 10:17:34;;;;;;;65.57;30.07;;;5.70;99.90;;;;;;5073864;28;20417;-73
2022/12/01 10:20:41;;;;;;;74.83;30.57;;;5.70;99.90;;;;;;5072948;28;20413;-73
2022/12/01 10:23:21;;;;;;;61.70;29.20;;;5.60;99.90;;;;;;4992907;28;20415;-73
2022/12/01 10:25:48;;;;;;;70.37;30.30;;;5.50;99.90;;;;;;4992194;28;20790;-73
2022/12/01 10:28:36;;;;;;;67.87;32.33;;;5.60;99.90;;;;;;5038523;28;20495;-73
2022/12/01 10:31:18;;;;;;;57.90;29.43;;;5.60;99.90;;;;;;5073980;28;20409;-73
2022/12/01 10:34:02;;;;;;;56.30;28.47;;;5.50;99.90;;;;;;5073416;28;20998;-72
2022/12/01 10:36:29;;;;;;;67.97;28.73;;;5.60;99.90;;;;;;5073523;28;20456;-71
2022/12/01 10:38:55;;;;;;;82.27;33.33;;;5.70;99.90;;;;;;5072469;28;20401;-73
2022/12/01 10:41:24;;;;;;;69.30;28.50;;;5.60;99.90;;;;;;5072800;28;20465;-73
2022/12/01 10:43:52;;;;;;;67.07;28.40;;;5.60;99.90;;;;;;5073285;28;20916;-72
2022/12/01 10:46:32;;;;;;;66.37;28.80;;;5.60;99.90;;;;;;5073754;28;20417;-73
2022/12/01 10:49:06;;;;;;;61.30;29.93;;;5.70;99.90;;;;;;5072686;28;20438;-73
2022/12/01 10:51:46;;;;;;;67.63;28.40;;;5.70;99.90;;;;;;5073788;28;20415;-73
2022/12/01 10:54:12;;;;;;;74.83;32.13;;;5.70;99.90;;;;;;5073041;28;20451;-73
2022/12/01 10:56:44;;;;;;;71.47;33.37;;;5.60;99.90;;;;;;5073059;28;20427;-73
2022/12/01 10:59:20;;;;;;;61.20;26.40;;;5.60;99.90;;;;;;5072385;28;20198;-73
2022/12/01 11:01:48;;;;;;;78.97;30.33;;;5.60;99.90;;;;;;5073907;28;20399;-72
2022/12/01 11:04:23;;;;;;;68.43;28.53;;;5.60;99.90;;;;;;5072991;28;20411;-73
2022/12/01 11:06:50;;;;;;;67.37;27.60;;;5.60;99.90;;;;;;5073490;28;20439;-73
2022/12/01 11:09:22;;;;;;;67.83;31.07;;;5.70;99.90;;;;;;5073409;28;20400;-73
2022/12/01 11:12:02;;;;;;;67.00;28.97;;;5.60;99.90;;;;;;5073658;28;20412;-72
2022/12/01 11:14:34;;;;;;;88.97;32.60;;;5.50;99.90;;;;;;5072828;28;20407;-73
2022/12/01 11:17:25;;;;;;;64.07;27.80;;;5.40;99.90;;;;;;5071720;28;20431;-73
2022/12/01 11:19:51;;;;;;;79.03;29.97;;;5.40;99.90;;;;;;5073386;28;20393;-73
2022/12/01 11:22:19;;;;;;;62.67;29.67;;;5.60;99.90;;;;;;5073349;28;20404;-73
2022/12/01 11:24:57;;;;;;;78.27;33.00;;;5.80;99.90;;;;;;5071395;28;20654;-73
2022/12/01 11:27:27;;;;;;;63.03;29.17;;;5.80;99.90;;;;;;5072310;28;20415;-73
2022/12/01 11:30:18;;;;;;;52.87;25.37;;;5.60;99.90;;;;;;5073830;28;20890;-72
2022/12/01 11:32:51;;;;;;;71.13;27.07;;;5.40;99.90;;;;;;5073305;28;20789;-72
2022/12/01 11:35:20;;;;;;;61.50;27.90;;;5.30;99.90;;;;;;5071818;28;20426;-73
2022/12/01 11:37:51;;;;;;;65.83;27.50;;;5.30;99.90;;;;;;5073210;28;20481;-72
2022/12/01 11:40:29;;;;;;;64.00;27.87;;;5.30;99.90;;;;;;5073339;28;20431;-73
2022/12/01 11:43:00;;;;;;;68.63;28.50;;;5.40;99.90;;;;;;5073234;28;20436;-72
2022/12/01 11:45:38;;;;;;;62.37;26.33;;;5.50;99.90;;;;;;5072518;28;20404;-74
2022/12/01 11:48:19;;;;;;;68.80;30.03;;;5.40;99.90;;;;;;5073103;28;20406;-72
2022/12/01 11:51:04;;;;;;;63.70;25.90;;;5.40;99.90;;;;;;5073138;28;20405;-72
2022/12/01 11:53:39;;;;;;;59.43;27.77;;;5.50;99.90;;;;;;5071984;28;20455;-72
2022/12/01 11:56:27;;;;;;;61.93;26.37;;;5.50;99.90;;;;;;5072963;28;20466;-72
2022/12/01 11:59:09;;;;;;;61.40;27.67;;;5.60;99.90;;;;;;5072989;28;20441;-72
2022/12/01 12:01:49;;;;;;;64.53;26.63;;;5.50;99.90;;;;;;5072916;28;20431;-72
2022/12/01 12:04:30;;;;;;;58.83;27.83;;;5.50;99.90;;;;;;5070972;28;20416;-73
2022/12/01 12:07:02;;;;;;;65.40;28.93;;;5.50;99.90;;;;;;5072920;28;20416;-72
2022/12/01 12:09:54;;;;;;;71.80;29.00;;;5.60;99.90;;;;;;5072879;28;20397;-73
2022/12/01 12:12:36;;;;;;;59.73;28.20;;;5.60;99.90;;;;;;5058106;28;20960;-73
2022/12/01 12:15:20;;;;;;;55.90;26.73;;;5.60;99.90;;;;;;5071955;28;20411;-72
2022/12/01 12:18:03;;;;;;;59.47;25.00;;;5.70;99.90;;;;;;5072622;28;20478;-74
2022/12/01 12:20:39;;;;;;;48.57;24.20;;;5.60;99.90;;;;;;5072796;28;20923;-71
2022/12/01 12:23:34;;;;;;;48.93;24.77;;;5.60;99.90;;;;;;5072841;28;20908;-72
2022/12/01 12:26:14;;;;;;;51.33;24.53;;;5.60;99.90;;;;;;5042596;28;20529;-72
2022/12/01 12:29:16;;;;;;;57.80;22.50;;;5.50;99.90;;;;;;5072797;28;20491;-72
2022/12/01 12:32:26;;;;;;;43.93;22.50;;;5.60;99.90;;;;;;5072099;28;20971;-73
2022/12/01 12:35:08;;;;;;;58.00;25.20;;;5.40;99.90;;;;;;5071939;28;20531;-72
2022/12/01 12:37:50;;;;;;;52.63;23.53;;;5.40;99.90;;;;;;5072721;28;20432;-73
2022/12/01 12:40:35;;;;;;;41.13;21.37;;;5.40;99.90;;;;;;5076010;28;20392;-72
2022/12/01 12:43:28;;;;;;;43.33;22.47;;;5.30;99.90;;;;;;5075091;28;20430;-72
2022/12/01 12:46:10;;;;;;;54.07;23.30;;;5.10;99.90;;;;;;5075663;28;20412;-74
2022/12/01 12:48:51;;;;;;;54.70;22.60;;;5.20;99.90;;;;;;5075598;28;20473;-73
2022/12/01 12:51:21;;;;;;;53.00;22.57;;;5.30;99.90;;;;;;5075913;28;20396;-73
2022/12/01 12:54:00;;;;;;;50.03;23.77;;;5.30;99.90;;;;;;5073979;28;20458;-74
2022/12/01 12:56:29;;;;;;;41.00;21.40;;;5.40;99.90;;;;;;5075921;28;20510;-73
2022/12/01 12:59:13;;;;;;;50.13;23.40;;;5.40;99.90;;;;;;5076004;28;20546;-73
2022/12/01 13:01:46;;;;;;;45.33;21.97;;;5.40;99.90;;;;;;5074915;28;20401;-72